createdAt,value
2022-11-07T00:01:36.091Z,10.90
2022-11-07T00:04:19.961Z,15.57
2022-11-07T00:07:04.465Z,8.97
2022-11-07T00:09:48.250Z,13.07
2022-11-07T00:12:35.311Z,11.57
2022-11-07T00:15:20.477Z,13.27
2022-11-07T00:18:04.408Z,11.70
2022-11-07T00:20:48.268Z,13.13
2022-11-07T00:23:32.125Z,12.50
2022-11-07T00:26:16.758Z,11.60
2022-11-07T00:29:00.720Z,11.23
2022-11-07T00:31:46.055Z,14.33
2022-11-07T00:34:29.708Z,11.37
2022-11-07T00:37:13.610Z,11.37
2022-11-07T00:39:57.256Z,8.97
2022-11-07T00:42:41.073Z,17.70
2022-11-07T00:45:24.854Z,13.17
2022-11-07T00:48:10.202Z,11.87
2022-11-07T00:50:54.096Z,14.30
2022-11-07T00:53:38.294Z,6.80
2022-11-07T00:56:25.080Z,9.43
2022-11-07T00:59:08.811Z,7.57
2022-11-07T01:01:52.639Z,12.73
2022-11-07T01:04:56.137Z,9.13
2022-11-07T01:07:40.622Z,10.03
2022-11-07T01:10:24.353Z,10.03
2022-11-07T01:13:08.156Z,9.60
2022-11-07T01:15:52.438Z,9.97
2022-11-07T01:18:36.176Z,15.07
2022-11-07T01:21:21.988Z,11.03
2022-11-07T01:24:06.597Z,14.00
2022-11-07T01:26:51.976Z,13.93
2022-11-07T01:29:36.037Z,15.40
2022-11-07T01:32:19.959Z,10.50
2022-11-07T01:35:04.106Z,13.27
2022-11-07T01:37:49.546Z,11.43
2022-11-07T01:40:54.378Z,14.57
2022-11-07T01:43:44.433Z,10.23
2022-11-07T01:46:31.539Z,11.17
2022-11-07T01:49:20.730Z,14.10
2022-11-07T01:52:08.414Z,10.90
2022-11-07T01:54:58.970Z,15.50
2022-11-07T01:57:46.475Z,9.50
2022-11-07T02:00:31.231Z,14.17
2022-11-07T02:03:18.686Z,12.70
2022-11-07T02:06:06.811Z,13.90
2022-11-07T02:08:51.992Z,12.33
2022-11-07T02:11:37.820Z,13.63
2022-11-07T02:14:21.590Z,12.07
2022-11-07T02:17:05.432Z,14.20
2022-11-07T02:19:51.472Z,9.97
2022-11-07T02:22:42.573Z,8.57
2022-11-07T02:25:28.164Z,11.17
2022-11-07T02:28:15.165Z,13.17
2022-11-07T02:30:58.945Z,9.13
2022-11-07T02:33:42.672Z,18.53
2022-11-07T02:36:27.213Z,12.03
2022-11-07T02:39:10.957Z,15.60
2022-11-07T02:41:58.824Z,9.50
2022-11-07T02:44:42.687Z,11.50
2022-11-07T02:47:26.333Z,11.00
2022-11-07T02:50:10.910Z,11.83
2022-11-07T02:52:54.734Z,15.07
2022-11-07T02:55:38.493Z,12.77
2022-11-07T02:58:23.688Z,10.47
2022-11-07T03:01:12.538Z,13.63
2022-11-07T03:03:56.455Z,12.93
2022-11-07T03:06:40.237Z,10.20
2022-11-07T03:09:24.101Z,10.70
2022-11-07T03:12:08.121Z,9.17
2022-11-07T03:14:53.300Z,11.83
2022-11-07T03:17:37.281Z,15.00
2022-11-07T03:20:21.191Z,14.30
2022-11-07T03:23:05.088Z,12.23
2022-11-07T03:25:48.948Z,13.07
2022-11-07T03:28:33.167Z,6.87
2022-11-07T03:31:18.445Z,13.97
2022-11-07T03:34:02.434Z,16.60
2022-11-07T03:36:46.505Z,14.40
2022-11-07T03:39:30.726Z,8.23
2022-11-07T03:42:14.650Z,12.33
2022-11-07T03:44:58.564Z,11.57
2022-11-07T03:47:45.643Z,12.77
2022-11-07T03:50:29.558Z,11.63
2022-11-07T03:53:13.904Z,13.37
2022-11-07T03:55:58.579Z,14.70
2022-11-07T03:58:42.680Z,10.57
2022-11-07T04:01:26.852Z,9.77
2022-11-07T04:04:13.319Z,14.07
2022-11-07T04:06:57.358Z,11.73
2022-11-07T04:09:41.401Z,9.43
2022-11-07T04:12:42.880Z,9.90
2022-11-07T04:15:44.499Z,11.50
2022-11-07T04:18:28.370Z,13.03
2022-11-07T04:21:13.510Z,12.20
2022-11-07T04:23:57.201Z,13.17
2022-11-07T04:26:58.040Z,13.17
2022-11-07T04:29:41.763Z,12.10
2022-11-07T04:32:25.750Z,14.93
2022-11-07T04:35:09.833Z,11.13
2022-11-07T04:37:55.195Z,19.53
2022-11-07T04:40:38.957Z,14.37
2022-11-07T04:43:22.965Z,13.13
2022-11-07T04:46:07.374Z,14.93
2022-11-07T04:48:51.538Z,15.03
2022-11-07T04:51:35.464Z,12.23
2022-11-07T04:54:20.567Z,18.60
2022-11-07T04:57:04.594Z,12.50
2022-11-07T04:59:48.376Z,12.00
2022-11-07T05:02:32.187Z,11.73
2022-11-07T05:05:16.485Z,13.03
2022-11-07T05:08:00.235Z,12.80
2022-11-07T05:10:45.427Z,19.40
2022-11-07T05:13:29.177Z,12.77
2022-11-07T05:16:17.137Z,14.13
2022-11-07T05:19:00.938Z,15.93
2022-11-07T05:21:44.778Z,18.90
2022-11-07T05:24:28.548Z,15.80
2022-11-07T05:27:19.978Z,13.37
2022-11-07T05:30:03.769Z,15.77
2022-11-07T05:32:47.518Z,13.33
2022-11-07T05:35:31.277Z,13.73
2022-11-07T05:38:15.337Z,11.87
2022-11-07T05:41:03.333Z,13.87
2022-11-07T05:43:49.110Z,18.37
2022-11-07T05:46:32.939Z,11.70
2022-11-07T05:49:16.790Z,15.97
2022-11-07T05:52:00.546Z,18.00
2022-11-07T05:54:44.254Z,16.80
2022-11-07T05:57:30.594Z,17.43
2022-11-07T06:00:16.902Z,18.07
2022-11-07T06:03:01.443Z,20.67
2022-11-07T06:05:45.290Z,11.13
2022-11-07T06:08:29.156Z,15.13
2022-11-07T06:11:12.953Z,14.63
2022-11-07T06:13:56.700Z,16.40
2022-11-07T06:16:41.851Z,15.87
2022-11-07T06:19:25.661Z,17.77
2022-11-07T06:22:09.621Z,16.93
2022-11-07T06:24:53.682Z,20.57
2022-11-07T06:27:37.434Z,19.47
2022-11-07T06:30:21.294Z,15.37
2022-11-07T06:33:08.706Z,16.77
2022-11-07T06:35:52.402Z,20.00
2022-11-07T06:38:36.254Z,20.87
2022-11-07T06:41:20.317Z,14.00
2022-11-07T06:44:04.051Z,19.20
2022-11-07T06:46:48.137Z,15.13
2022-11-07T06:49:33.235Z,16.27
2022-11-07T06:52:17.593Z,21.63
2022-11-07T06:55:01.254Z,13.43
2022-11-07T06:57:47.294Z,15.60
2022-11-07T07:00:33.141Z,18.80
2022-11-07T07:03:17.426Z,17.10
2022-11-07T07:06:04.145Z,14.47
2022-11-07T07:08:48.230Z,16.30
2022-11-07T07:11:32.188Z,17.10
2022-11-07T07:14:16.231Z,14.30
2022-11-07T07:17:00.297Z,11.30
2022-11-07T07:19:44.323Z,11.10
2022-11-07T07:22:29.920Z,9.00
2022-11-07T07:25:14.018Z,13.87
2022-11-07T07:27:58.038Z,8.60
2022-11-07T07:30:44.763Z,8.80
2022-11-07T07:33:32.981Z,10.13
2022-11-07T07:36:20.705Z,11.43
2022-11-07T07:39:06.634Z,10.90
2022-11-07T07:41:50.950Z,10.83
2022-11-07T07:44:38.179Z,8.50
2022-11-07T07:47:22.246Z,11.80
2022-11-07T07:50:06.724Z,9.43
2022-11-07T07:52:50.853Z,11.03
2022-11-07T07:55:36.330Z,8.20
2022-11-07T07:58:20.210Z,11.47
2022-11-07T08:01:10.459Z,8.53
2022-11-07T08:04:02.796Z,10.17
2022-11-07T08:06:46.811Z,9.40
2022-11-07T08:09:36.288Z,9.87
2022-11-07T08:12:21.404Z,11.30
2022-11-07T08:15:05.590Z,9.30
2022-11-07T08:17:49.893Z,6.20
2022-11-07T08:20:33.713Z,7.03
2022-11-07T08:23:18.000Z,9.20
2022-11-07T08:26:04.629Z,9.33
2022-11-07T08:28:49.936Z,9.03
2022-11-07T08:31:34.170Z,10.63
2022-11-07T08:34:18.665Z,10.30
2022-11-07T08:37:02.490Z,8.73
2022-11-07T08:39:46.162Z,11.43
2022-11-07T08:42:30.080Z,9.57
2022-11-07T08:45:15.574Z,11.17
2022-11-07T08:48:00.113Z,8.13
2022-11-07T08:50:44.391Z,8.17
2022-11-07T08:53:28.711Z,7.60
2022-11-07T08:56:12.802Z,7.83
2022-11-07T08:58:56.741Z,5.90
2022-11-07T09:02:15.192Z,8.13
2022-11-07T09:04:46.295Z,10.53
2022-11-07T09:07:30.470Z,12.17
2022-11-07T09:10:14.676Z,7.37
2022-11-07T09:12:58.696Z,5.60
2022-11-07T09:15:47.723Z,9.87
2022-11-07T09:18:36.087Z,8.93
2022-11-07T09:21:22.613Z,6.37
2022-11-07T09:24:08.223Z,10.23
2022-11-07T09:26:52.137Z,15.47
2022-11-07T09:29:36.237Z,5.43
2022-11-07T09:32:43.479Z,7.60
2022-11-07T09:35:25.163Z,8.50
2022-11-07T09:38:08.954Z,6.43
2022-11-07T09:40:58.361Z,6.10
2022-11-07T09:44:07.546Z,9.33
2022-11-07T09:46:59.094Z,6.20
2022-11-07T09:49:47.403Z,4.43
2022-11-07T09:52:40.754Z,9.43
2022-11-07T09:55:28.153Z,10.23
2022-11-07T09:58:20.154Z,5.37
2022-11-07T10:01:07.710Z,8.70
2022-11-07T10:04:23.656Z,12.17
2022-11-07T10:07:01.231Z,7.30
2022-11-07T10:09:56.923Z,11.70
2022-11-07T10:13:02.794Z,11.10
2022-11-07T10:15:56.866Z,8.70
2022-11-07T10:18:55.220Z,7.90
2022-11-07T10:21:46.847Z,5.90
2022-11-07T10:24:48.361Z,7.57
2022-11-07T10:27:40.851Z,9.95
2022-11-07T10:30:24.665Z,5.17
2022-11-07T10:33:18.321Z,6.93
2022-11-07T10:36:06.938Z,6.63
2022-11-07T10:38:51.107Z,9.10
2022-11-07T10:41:37.286Z,9.73
2022-11-07T10:44:25.485Z,8.47
2022-11-07T10:47:17.262Z,4.87
2022-11-07T10:50:02.625Z,6.70
2022-11-07T10:52:54.233Z,6.80
2022-11-07T10:55:45.428Z,4.57
2022-11-07T10:58:35.537Z,6.65
2022-11-07T11:01:26.572Z,5.17
2022-11-07T11:04:21.319Z,4.97
2022-11-07T11:07:07.589Z,4.33
2022-11-07T11:09:52.985Z,5.43
2022-11-07T11:12:37.635Z,6.43
2022-11-07T11:15:24.144Z,6.72
2022-11-07T11:18:18.764Z,8.20
2022-11-07T11:21:06.167Z,4.47
2022-11-07T11:23:50.654Z,7.43
2022-11-07T11:26:37.829Z,6.88
2022-11-07T11:29:35.386Z,7.15
2022-11-07T11:32:28.640Z,8.63
2022-11-07T11:35:40.355Z,4.57
2022-11-07T11:38:29.602Z,7.60
2022-11-07T11:41:21.144Z,5.23
2022-11-07T11:44:13.998Z,5.18
2022-11-07T11:47:05.522Z,9.47
2022-11-07T11:49:53.876Z,6.27
2022-11-07T11:52:39.397Z,4.70
2022-11-07T11:55:29.519Z,5.15
2022-11-07T11:58:24.927Z,6.50
2022-11-07T12:01:20.985Z,5.60
2022-11-07T12:04:35.699Z,6.53
2022-11-07T12:07:47.760Z,8.97
2022-11-07T12:10:36.628Z,7.53
2022-11-07T12:13:33.674Z,7.13
2022-11-07T12:16:27.005Z,6.13
2022-11-07T12:19:22.102Z,6.18
2022-11-07T12:22:11.346Z,5.97
2022-11-07T12:25:03.157Z,8.60
2022-11-07T12:27:54.613Z,5.37
2022-11-07T12:30:52.872Z,7.93
2022-11-07T12:33:45.201Z,6.73
2022-11-07T12:36:44.458Z,6.57
2022-11-07T12:39:44.109Z,5.30
2022-11-07T12:42:41.672Z,5.70
2022-11-07T12:45:38.159Z,5.37
2022-11-07T12:49:03.604Z,7.40
2022-11-07T12:51:55.728Z,7.03
2022-11-07T12:54:48.222Z,5.83
2022-11-07T12:57:35.552Z,7.37
2022-11-07T13:00:28.831Z,6.60
2022-11-07T13:03:38.562Z,6.67
2022-11-07T13:06:31.980Z,6.93
2022-11-07T13:09:25.011Z,6.93
2022-11-07T13:12:19.042Z,6.77
2022-11-07T13:15:05.664Z,7.50
2022-11-07T13:17:49.784Z,6.93
2022-11-07T13:20:34.086Z,4.90
2022-11-07T13:23:18.888Z,5.43
2022-11-07T13:26:25.873Z,11.63
2022-11-07T13:29:25.081Z,6.23
2022-11-07T13:32:13.040Z,6.30
2022-11-07T13:34:59.400Z,9.30
2022-11-07T13:37:48.233Z,8.97
2022-11-07T13:40:35.521Z,5.30
2022-11-07T13:43:22.690Z,7.97
2022-11-07T13:46:09.963Z,7.47
2022-11-07T13:48:58.239Z,5.37
2022-11-07T13:51:45.571Z,6.20
2022-11-07T13:54:35.966Z,4.67
2022-11-07T13:57:23.454Z,7.07
2022-11-07T14:00:14.926Z,7.70
2022-11-07T14:03:00.755Z,5.87
2022-11-07T14:05:49.507Z,9.30
2022-11-07T14:08:37.576Z,8.97
2022-11-07T14:11:24.020Z,12.68
2022-11-07T14:14:09.014Z,12.27
2022-11-07T14:16:59.094Z,6.60
2022-11-07T14:19:44.450Z,14.33
2022-11-07T14:22:29.637Z,12.00
2022-11-07T14:25:23.416Z,10.03
2022-11-07T14:28:08.637Z,11.93
2022-11-07T14:30:53.875Z,9.20
2022-11-07T14:33:37.778Z,6.07
2022-11-07T14:36:23.300Z,6.60
2022-11-07T14:39:15.276Z,6.37
2022-11-07T14:42:02.504Z,6.43
2022-11-07T14:44:54.358Z,13.80
2022-11-07T14:47:39.466Z,9.57
2022-11-07T14:50:28.785Z,9.77
2022-11-07T14:53:19.331Z,17.87
2022-11-07T14:56:09.286Z,21.60
2022-11-07T14:58:53.263Z,17.27
2022-11-07T15:01:37.249Z,23.93
2022-11-07T15:04:29.559Z,14.37
2022-11-07T15:07:19.948Z,21.00
2022-11-07T15:10:16.584Z,18.03
2022-11-07T15:13:06.881Z,17.63
2022-11-07T15:16:02.095Z,15.33
2022-11-07T15:18:49.287Z,16.03
2022-11-07T15:21:36.121Z,13.70
2022-11-07T15:24:41.373Z,16.90
2022-11-07T15:27:32.607Z,13.87
2022-11-07T15:30:30.121Z,12.23
2022-11-07T15:33:15.536Z,19.13
2022-11-07T15:36:02.279Z,17.10
2022-11-07T15:38:46.433Z,22.30
2022-11-07T15:41:30.551Z,21.63
2022-11-07T15:44:14.693Z,17.07
2022-11-07T15:47:00.445Z,21.83
2022-11-07T15:49:44.508Z,16.30
2022-11-07T15:52:28.827Z,13.27
2022-11-07T15:55:18.171Z,13.60
2022-11-07T15:58:02.165Z,11.97
2022-11-07T16:00:46.217Z,21.00
2022-11-07T16:03:31.647Z,22.87
2022-11-07T16:06:21.127Z,13.20
2022-11-07T16:09:06.218Z,12.60
2022-11-07T16:11:50.548Z,13.77
2022-11-07T16:14:43.894Z,15.50
2022-11-07T16:17:29.203Z,13.07
2022-11-07T16:20:18.415Z,11.23
2022-11-07T16:23:03.328Z,11.23
2022-11-07T16:25:51.473Z,7.53
2022-11-07T16:28:38.905Z,7.73
2022-11-07T16:31:23.281Z,8.87
2022-11-07T16:34:07.892Z,6.63
2022-11-07T16:36:53.487Z,9.17
2022-11-07T16:39:37.499Z,4.90
2022-11-07T16:42:21.692Z,7.00
2022-11-07T16:45:06.400Z,10.57
2022-11-07T16:47:50.432Z,7.00
2022-11-07T16:50:34.547Z,6.27
2022-11-07T16:53:20.711Z,6.00
2022-11-07T16:56:05.166Z,4.37
2022-11-07T16:58:49.679Z,5.27
2022-11-07T17:01:33.766Z,9.60
2022-11-07T17:04:17.859Z,9.23
2022-11-07T17:07:01.992Z,7.17
2022-11-07T17:09:47.480Z,6.57
2022-11-07T17:12:31.339Z,8.07
2022-11-07T17:15:15.230Z,7.87
2022-11-07T17:18:02.298Z,7.53
2022-11-07T17:20:51.245Z,12.43
2022-11-07T17:23:36.821Z,10.00
2022-11-07T17:26:23.206Z,8.07
2022-11-07T17:29:08.476Z,8.83
2022-11-07T17:31:52.351Z,7.97
2022-11-07T17:34:36.253Z,10.30
2022-11-07T17:37:21.136Z,12.07
2022-11-07T17:40:06.742Z,7.43
2022-11-07T17:42:51.874Z,9.53
2022-11-07T17:45:35.670Z,11.57
2022-11-07T17:48:19.756Z,8.37
2022-11-07T17:51:03.621Z,9.23
2022-11-07T17:53:47.532Z,8.50
2022-11-07T17:56:32.383Z,8.93
2022-11-07T17:59:19.378Z,10.27
2022-11-07T18:02:03.347Z,7.73
2022-11-07T18:04:48.078Z,8.90
2022-11-07T18:07:33.137Z,11.17
2022-11-07T18:10:17.396Z,11.17
2022-11-07T18:13:01.186Z,12.03
2022-11-07T18:15:46.461Z,10.17
2022-11-07T18:18:30.313Z,11.67
2022-11-07T18:21:14.884Z,12.43
2022-11-07T18:23:59.578Z,8.87
2022-11-07T18:26:43.826Z,13.43
2022-11-07T18:29:27.609Z,9.73
2022-11-07T18:32:12.787Z,9.60
2022-11-07T18:34:56.698Z,11.33
2022-11-07T18:37:40.674Z,12.70
2022-11-07T18:40:24.526Z,9.83
2022-11-07T18:43:11.818Z,8.53
2022-11-07T18:45:56.948Z,15.47
2022-11-07T18:48:43.239Z,15.23
2022-11-07T18:51:27.218Z,15.87
2022-11-07T18:54:13.061Z,12.10
2022-11-07T18:56:56.829Z,12.93
2022-11-07T18:59:40.550Z,13.73
2022-11-07T19:02:24.345Z,15.63
2022-11-07T19:05:09.869Z,14.73
2022-11-07T19:07:53.600Z,8.53
2022-11-07T19:10:37.296Z,8.90
2022-11-07T19:13:21.131Z,12.70
2022-11-07T19:16:06.596Z,11.20
2022-11-07T19:18:51.286Z,10.13
2022-11-07T19:21:38.201Z,12.17
2022-11-07T19:24:25.312Z,7.90
2022-11-07T19:27:09.479Z,8.43
2022-11-07T19:29:53.422Z,17.43
2022-11-07T19:32:37.276Z,11.50
2022-11-07T19:35:21.084Z,9.23
2022-11-07T19:38:09.088Z,9.93
2022-11-07T19:40:53.148Z,10.30
2022-11-07T19:43:37.065Z,8.07
2022-11-07T19:46:22.754Z,10.33
2022-11-07T19:49:06.488Z,6.10
2022-11-07T19:51:52.284Z,8.03
2022-11-07T19:54:37.703Z,10.30
2022-11-07T19:57:21.522Z,9.70
2022-11-07T20:00:06.387Z,12.33
2022-11-07T20:02:50.165Z,9.07
2022-11-07T20:05:34.483Z,7.73
2022-11-07T20:08:18.282Z,7.07
2022-11-07T20:11:03.433Z,9.93
2022-11-07T20:13:48.123Z,9.70
2022-11-07T20:16:32.309Z,7.17
2022-11-07T20:19:16.035Z,7.27
2022-11-07T20:21:59.800Z,12.17
2022-11-07T20:24:43.588Z,10.40
2022-11-07T20:27:28.905Z,6.97
2022-11-07T20:30:13.796Z,9.20
2022-11-07T20:32:57.833Z,9.47
2022-11-07T20:35:41.839Z,10.70
2022-11-07T20:38:25.693Z,9.37
2022-11-07T20:41:10.025Z,8.80
2022-11-07T20:43:55.984Z,6.73
2022-11-07T20:46:41.767Z,7.20
2022-11-07T20:49:25.466Z,10.07
2022-11-07T20:52:09.367Z,7.30
2022-11-07T20:54:53.577Z,10.93
2022-11-07T20:57:37.403Z,11.93
2022-11-07T21:00:23.330Z,7.50
2022-11-07T21:03:07.230Z,9.47
2022-11-07T21:05:51.815Z,12.93
2022-11-07T21:08:37.380Z,9.03
2022-11-07T21:11:21.230Z,9.73
2022-11-07T21:14:05.384Z,9.17
2022-11-07T21:16:50.645Z,9.67
2022-11-07T21:19:34.487Z,7.20
2022-11-07T21:22:18.474Z,10.87
2022-11-07T21:25:03.788Z,12.10
2022-11-07T21:27:47.593Z,9.27
2022-11-07T21:30:32.018Z,11.13
2022-11-07T21:33:17.447Z,7.23
2022-11-07T21:36:01.721Z,12.37
2022-11-07T21:38:46.860Z,11.50
2022-11-07T21:41:32.642Z,11.70
2022-11-07T21:44:16.756Z,7.40
2022-11-07T21:47:00.784Z,18.60
2022-11-07T21:49:46.354Z,8.73
2022-11-07T21:52:30.241Z,11.37
2022-11-07T21:55:14.231Z,10.07
2022-11-07T21:57:58.294Z,8.63
2022-11-07T22:00:42.287Z,9.07
2022-11-07T22:03:51.111Z,8.27
2022-11-07T22:06:33.743Z,6.87
2022-11-07T22:09:19.585Z,8.40
2022-11-07T22:12:03.347Z,10.40
2022-11-07T22:14:49.161Z,7.53
2022-11-07T22:17:32.900Z,11.63
2022-11-07T22:20:16.995Z,8.27
2022-11-07T22:23:02.136Z,9.93
2022-11-07T22:25:45.865Z,9.87
2022-11-07T22:28:29.662Z,7.57
2022-11-07T22:31:15.125Z,10.00
2022-11-07T22:34:00.891Z,9.43
2022-11-07T22:36:44.662Z,10.33
2022-11-07T22:39:29.816Z,6.20
2022-11-07T22:42:13.537Z,11.17
2022-11-07T22:44:57.232Z,7.20
2022-11-07T22:47:41.022Z,9.47
2022-11-07T22:50:24.775Z,7.87
2022-11-07T22:53:08.628Z,8.07
2022-11-07T22:55:53.746Z,7.00
2022-11-07T22:58:37.828Z,7.10
2022-11-07T23:01:23.622Z,7.03
2022-11-07T23:04:08.278Z,11.53
2022-11-07T23:06:52.013Z,10.77
2022-11-07T23:09:35.760Z,9.33
2022-11-07T23:12:20.888Z,10.07
2022-11-07T23:15:05.255Z,9.43
2022-11-07T23:17:48.974Z,9.80
2022-11-07T23:20:49.534Z,9.80
2022-11-07T23:23:33.248Z,14.57
2022-11-07T23:26:19.349Z,9.60
2022-11-07T23:29:10.830Z,9.23
2022-11-07T23:31:55.345Z,8.20
2022-11-07T23:34:39.947Z,9.00
2022-11-07T23:37:23.674Z,9.53
2022-11-07T23:40:08.767Z,7.70
2022-11-07T23:42:52.544Z,9.97
2022-11-07T23:45:54.945Z,10.77
2022-11-07T23:48:56.279Z,10.97
2022-11-07T23:51:40.805Z,11.57
2022-11-07T23:54:38.330Z,8.27
2022-11-07T23:57:22.307Z,7.03
